sensor_id;sensor_type;location;lat;lon;timestamp;P1;durP1;ratioP1;P2;durP2;ratioP2
10446;SDS011;70909;45.768;4.884;2023-06-22T00:02:15;0.10;;;0.10;;
10446;SDS011;70909;45.768;4.884;2023-06-22T00:04:42;0.10;;;0.10;;
10446;SDS011;70909;45.768;4.884;2023-06-22T00:07:09;0.10;;;0.10;;
10446;SDS011;70909;45.768;4.884;2023-06-22T00:09:36;0.10;;;0.10;;
10446;SDS011;70909;45.768;4.884;2023-06-22T00:12:03;0.10;;;0.10;;
10446;SDS011;70909;45.768;4.884;2023-06-22T00:14:30;0.10;;;0.10;;
10446;SDS011;70909;45.768;4.884;2023-06-22T00:16:58;0.10;;;0.10;;
10446;SDS011;70909;45.768;4.884;2023-06-22T00:19:25;0.10;;;0.10;;
10446;SDS011;70909;45.768;4.884;2023-06-22T00:21:52;0.10;;;0.10;;
10446;SDS011;70909;45.768;4.884;2023-06-22T00:24:19;0.10;;;0.10;;
10446;SDS011;70909;45.768;4.884;2023-06-22T00:26:47;0.10;;;0.10;;
10446;SDS011;70909;45.768;4.884;2023-06-22T00:29:14;0.05;;;0.05;;
10446;SDS011;70909;45.768;4.884;2023-06-22T00:31:41;0.10;;;0.10;;
10446;SDS011;70909;45.768;4.884;2023-06-22T00:34:09;0.10;;;0.10;;
10446;SDS011;70909;45.768;4.884;2023-06-22T00:36:36;0.10;;;0.10;;
10446;SDS011;70909;45.768;4.884;2023-06-22T00:39:02;0.10;;;0.10;;
10446;SDS011;70909;45.768;4.884;2023-06-22T00:41:30;0.10;;;0.10;;
10446;SDS011;70909;45.768;4.884;2023-06-22T00:43:57;0.10;;;0.10;;
10446;SDS011;70909;45.768;4.884;2023-06-22T00:46:24;0.10;;;0.10;;
10446;SDS011;70909;45.768;4.884;2023-06-22T00:48:51;0.10;;;0.10;;
10446;SDS011;70909;45.768;4.884;2023-06-22T00:51:23;0.10;;;0.10;;
10446;SDS011;70909;45.768;4.884;2023-06-22T00:53:51;0.10;;;0.10;;
10446;SDS011;70909;45.768;4.884;2023-06-22T00:56:18;0.10;;;0.10;;
10446;SDS011;70909;45.768;4.884;2023-06-22T00:58:49;0.10;;;0.10;;
10446;SDS011;70909;45.768;4.884;2023-06-22T01:01:18;0.10;;;0.10;;
10446;SDS011;70909;45.768;4.884;2023-06-22T01:03:48;0.10;;;0.10;;
10446;SDS011;70909;45.768;4.884;2023-06-22T01:06:18;0.10;;;0.10;;
10446;SDS011;70909;45.768;4.884;2023-06-22T01:08:53;0.10;;;0.10;;
10446;SDS011;70909;45.768;4.884;2023-06-22T01:11:28;0.10;;;0.10;;
10446;SDS011;70909;45.768;4.884;2023-06-22T01:14:04;0.10;;;0.10;;
10446;SDS011;70909;45.768;4.884;2023-06-22T01:16:37;0.10;;;0.10;;
10446;SDS011;70909;45.768;4.884;2023-06-22T01:19:09;0.10;;;0.10;;
10446;SDS011;70909;45.768;4.884;2023-06-22T01:21:46;0.10;;;0.10;;
10446;SDS011;70909;45.768;4.884;2023-06-22T01:24:18;0.10;;;0.10;;
10446;SDS011;70909;45.768;4.884;2023-06-22T01:26:54;0.10;;;0.10;;
10446;SDS011;70909;45.768;4.884;2023-06-22T01:29:32;0.10;;;0.10;;
10446;SDS011;70909;45.768;4.884;2023-06-22T01:32:01;0.10;;;0.10;;
10446;SDS011;70909;45.768;4.884;2023-06-22T01:34:31;0.10;;;0.10;;
10446;SDS011;70909;45.768;4.884;2023-06-22T01:36:59;0.10;;;0.10;;
10446;SDS011;70909;45.768;4.884;2023-06-22T01:39:27;0.10;;;0.10;;
10446;SDS011;70909;45.768;4.884;2023-06-22T01:41:55;0.10;;;0.10;;
10446;SDS011;70909;45.768;4.884;2023-06-22T01:44:23;0.10;;;0.10;;
10446;SDS011;70909;45.768;4.884;2023-06-22T01:46:53;0.10;;;0.10;;
10446;SDS011;70909;45.768;4.884;2023-06-22T01:49:20;0.10;;;0.10;;
10446;SDS011;70909;45.768;4.884;2023-06-22T01:51:47;0.10;;;0.10;;
10446;SDS011;70909;45.768;4.884;2023-06-22T01:54:14;0.10;;;0.10;;
10446;SDS011;70909;45.768;4.884;2023-06-22T01:56:41;0.10;;;0.10;;
10446;SDS011;70909;45.768;4.884;2023-06-22T01:59:09;0.10;;;0.10;;
10446;SDS011;70909;45.768;4.884;2023-06-22T02:01:42;0.10;;;0.10;;
10446;SDS011;70909;45.768;4.884;2023-06-22T02:04:16;0.10;;;0.10;;
10446;SDS011;70909;45.768;4.884;2023-06-22T02:06:46;0.10;;;0.10;;
10446;SDS011;70909;45.768;4.884;2023-06-22T02:09:17;0.10;;;0.10;;
10446;SDS011;70909;45.768;4.884;2023-06-22T02:11:47;0.10;;;0.10;;
10446;SDS011;70909;45.768;4.884;2023-06-22T02:14:19;0.10;;;0.10;;
10446;SDS011;70909;45.768;4.884;2023-06-22T02:16:47;0.10;;;0.10;;
10446;SDS011;70909;45.768;4.884;2023-06-22T02:19:16;0.10;;;0.10;;
10446;SDS011;70909;45.768;4.884;2023-06-22T02:21:48;0.10;;;0.10;;
10446;SDS011;70909;45.768;4.884;2023-06-22T02:24:15;0.10;;;0.10;;
10446;SDS011;70909;45.768;4.884;2023-06-22T02:26:42;0.10;;;0.10;;
10446;SDS011;70909;45.768;4.884;2023-06-22T02:29:10;0.10;;;0.10;;
10446;SDS011;70909;45.768;4.884;2023-06-22T02:31:37;0.10;;;0.10;;
10446;SDS011;70909;45.768;4.884;2023-06-22T02:34:04;0.10;;;0.10;;
10446;SDS011;70909;45.768;4.884;2023-06-22T02:36:32;0.10;;;0.10;;
10446;SDS011;70909;45.768;4.884;2023-06-22T02:38:59;0.10;;;0.10;;
10446;SDS011;70909;45.768;4.884;2023-06-22T02:41:28;0.10;;;0.10;;
10446;SDS011;70909;45.768;4.884;2023-06-22T02:43:55;0.10;;;0.10;;
10446;SDS011;70909;45.768;4.884;2023-06-22T02:46:21;0.10;;;0.10;;
10446;SDS011;70909;45.768;4.884;2023-06-22T02:48:48;0.10;;;0.10;;
10446;SDS011;70909;45.768;4.884;2023-06-22T02:51:15;0.10;;;0.10;;
10446;SDS011;70909;45.768;4.884;2023-06-22T02:53:43;0.10;;;0.10;;
10446;SDS011;70909;45.768;4.884;2023-06-22T02:56:10;0.10;;;0.10;;
10446;SDS011;70909;45.768;4.884;2023-06-22T02:58:37;0.10;;;0.10;;
10446;SDS011;70909;45.768;4.884;2023-06-22T03:01:04;0.10;;;0.10;;
10446;SDS011;70909;45.768;4.884;2023-06-22T03:03:31;0.10;;;0.10;;
10446;SDS011;70909;45.768;4.884;2023-06-22T03:05:58;0.10;;;0.10;;
10446;SDS011;70909;45.768;4.884;2023-06-22T03:08:27;0.10;;;0.10;;
10446;SDS011;70909;45.768;4.884;2023-06-22T03:10:55;0.10;;;0.10;;
10446;SDS011;70909;45.768;4.884;2023-06-22T03:13:22;0.10;;;0.10;;
10446;SDS011;70909;45.768;4.884;2023-06-22T03:15:49;0.10;;;0.10;;
10446;SDS011;70909;45.768;4.884;2023-06-22T03:18:16;0.10;;;0.10;;
10446;SDS011;70909;45.768;4.884;2023-06-22T03:20:43;0.10;;;0.10;;
10446;SDS011;70909;45.768;4.884;2023-06-22T03:23:09;0.10;;;0.10;;
10446;SDS011;70909;45.768;4.884;2023-06-22T03:25:36;0.10;;;0.10;;
10446;SDS011;70909;45.768;4.884;2023-06-22T03:28:04;0.10;;;0.10;;
10446;SDS011;70909;45.768;4.884;2023-06-22T03:30:31;0.10;;;0.10;;
10446;SDS011;70909;45.768;4.884;2023-06-22T03:32:58;0.10;;;0.10;;
10446;SDS011;70909;45.768;4.884;2023-06-22T03:35:25;0.10;;;0.10;;
10446;SDS011;70909;45.768;4.884;2023-06-22T03:37:52;0.10;;;0.10;;
10446;SDS011;70909;45.768;4.884;2023-06-22T03:40:18;0.10;;;0.10;;
10446;SDS011;70909;45.768;4.884;2023-06-22T03:42:45;0.10;;;0.10;;
10446;SDS011;70909;45.768;4.884;2023-06-22T03:45:13;0.10;;;0.10;;
10446;SDS011;70909;45.768;4.884;2023-06-22T03:47:40;0.10;;;0.10;;
10446;SDS011;70909;45.768;4.884;2023-06-22T03:50:08;0.10;;;0.10;;
10446;SDS011;70909;45.768;4.884;2023-06-22T03:52:35;0.10;;;0.10;;
10446;SDS011;70909;45.768;4.884;2023-06-22T03:55:02;0.10;;;0.10;;
10446;SDS011;70909;45.768;4.884;2023-06-22T03:57:29;0.20;;;0.20;;
10446;SDS011;70909;45.768;4.884;2023-06-22T03:59:56;0.10;;;0.10;;
10446;SDS011;70909;45.768;4.884;2023-06-22T04:02:25;0.10;;;0.10;;
10446;SDS011;70909;45.768;4.884;2023-06-22T04:04:52;0.10;;;0.10;;
10446;SDS011;70909;45.768;4.884;2023-06-22T04:07:18;0.10;;;0.10;;
10446;SDS011;70909;45.768;4.884;2023-06-22T04:09:45;0.10;;;0.10;;
10446;SDS011;70909;45.768;4.884;2023-06-22T04:12:12;0.10;;;0.10;;
10446;SDS011;70909;45.768;4.884;2023-06-22T04:14:39;0.10;;;0.10;;
10446;SDS011;70909;45.768;4.884;2023-06-22T04:17:05;0.10;;;0.10;;
10446;SDS011;70909;45.768;4.884;2023-06-22T04:19:34;0.10;;;0.10;;
10446;SDS011;70909;45.768;4.884;2023-06-22T04:22:00;0.10;;;0.10;;
10446;SDS011;70909;45.768;4.884;2023-06-22T04:24:27;0.10;;;0.10;;
10446;SDS011;70909;45.768;4.884;2023-06-22T04:26:54;0.10;;;0.10;;
10446;SDS011;70909;45.768;4.884;2023-06-22T04:29:21;0.10;;;0.10;;
10446;SDS011;70909;45.768;4.884;2023-06-22T04:31:53;0.10;;;0.10;;
10446;SDS011;70909;45.768;4.884;2023-06-22T04:34:22;0.20;;;0.20;;
10446;SDS011;70909;45.768;4.884;2023-06-22T04:36:52;0.10;;;0.10;;
10446;SDS011;70909;45.768;4.884;2023-06-22T04:39:19;0.10;;;0.10;;
10446;SDS011;70909;45.768;4.884;2023-06-22T04:41:46;0.20;;;0.20;;
10446;SDS011;70909;45.768;4.884;2023-06-22T04:44:14;0.20;;;0.20;;
10446;SDS011;70909;45.768;4.884;2023-06-22T04:46:48;0.10;;;0.10;;
10446;SDS011;70909;45.768;4.884;2023-06-22T04:49:19;0.10;;;0.10;;
10446;SDS011;70909;45.768;4.884;2023-06-22T04:51:47;0.10;;;0.10;;
10446;SDS011;70909;45.768;4.884;2023-06-22T04:54:15;0.10;;;0.10;;
10446;SDS011;70909;45.768;4.884;2023-06-22T04:56:42;0.10;;;0.10;;
10446;SDS011;70909;45.768;4.884;2023-06-22T04:59:11;0.10;;;0.10;;
10446;SDS011;70909;45.768;4.884;2023-06-22T05:01:38;0.10;;;0.10;;
10446;SDS011;70909;45.768;4.884;2023-06-22T05:04:05;0.10;;;0.10;;
10446;SDS011;70909;45.768;4.884;2023-06-22T05:06:32;0.10;;;0.10;;
10446;SDS011;70909;45.768;4.884;2023-06-22T05:08:59;0.10;;;0.10;;
10446;SDS011;70909;45.768;4.884;2023-06-22T05:11:27;0.10;;;0.10;;
10446;SDS011;70909;45.768;4.884;2023-06-22T05:13:54;0.10;;;0.10;;
10446;SDS011;70909;45.768;4.884;2023-06-22T05:16:22;0.10;;;0.10;;
10446;SDS011;70909;45.768;4.884;2023-06-22T05:18:50;0.10;;;0.10;;
10446;SDS011;70909;45.768;4.884;2023-06-22T05:21:18;0.10;;;0.10;;
10446;SDS011;70909;45.768;4.884;2023-06-22T05:23:47;0.10;;;0.10;;
10446;SDS011;70909;45.768;4.884;2023-06-22T05:26:14;0.10;;;0.10;;
10446;SDS011;70909;45.768;4.884;2023-06-22T05:28:42;0.10;;;0.10;;
10446;SDS011;70909;45.768;4.884;2023-06-22T05:31:10;0.10;;;0.10;;
10446;SDS011;70909;45.768;4.884;2023-06-22T05:33:38;0.10;;;0.10;;
10446;SDS011;70909;45.768;4.884;2023-06-22T05:36:05;0.20;;;0.20;;
10446;SDS011;70909;45.768;4.884;2023-06-22T05:38:32;0.10;;;0.10;;
10446;SDS011;70909;45.768;4.884;2023-06-22T05:40:58;0.10;;;0.10;;
10446;SDS011;70909;45.768;4.884;2023-06-22T05:43:25;0.20;;;0.20;;
10446;SDS011;70909;45.768;4.884;2023-06-22T05:45:53;0.10;;;0.10;;
10446;SDS011;70909;45.768;4.884;2023-06-22T05:48:20;0.10;;;0.10;;
10446;SDS011;70909;45.768;4.884;2023-06-22T05:50:47;0.10;;;0.10;;
10446;SDS011;70909;45.768;4.884;2023-06-22T05:53:14;0.10;;;0.10;;
10446;SDS011;70909;45.768;4.884;2023-06-22T05:55:41;0.10;;;0.10;;
10446;SDS011;70909;45.768;4.884;2023-06-22T05:58:08;0.10;;;0.10;;
10446;SDS011;70909;45.768;4.884;2023-06-22T06:00:35;0.10;;;0.10;;
10446;SDS011;70909;45.768;4.884;2023-06-22T06:03:04;0.10;;;0.10;;
10446;SDS011;70909;45.768;4.884;2023-06-22T06:05:31;0.10;;;0.10;;
10446;SDS011;70909;45.768;4.884;2023-06-22T06:07:58;0.10;;;0.10;;
10446;SDS011;70909;45.768;4.884;2023-06-22T06:10:25;0.10;;;0.10;;
10446;SDS011;70909;45.768;4.884;2023-06-22T06:12:54;0.10;;;0.10;;
10446;SDS011;70909;45.768;4.884;2023-06-22T06:15:21;0.10;;;0.10;;
10446;SDS011;70909;45.768;4.884;2023-06-22T06:17:49;0.10;;;0.10;;
10446;SDS011;70909;45.768;4.884;2023-06-22T06:20:18;0.10;;;0.10;;
10446;SDS011;70909;45.768;4.884;2023-06-22T06:22:46;0.10;;;0.10;;
10446;SDS011;70909;45.768;4.884;2023-06-22T06:25:13;0.10;;;0.10;;
10446;SDS011;70909;45.768;4.884;2023-06-22T06:27:42;0.10;;;0.10;;
10446;SDS011;70909;45.768;4.884;2023-06-22T06:30:09;0.10;;;0.10;;
10446;SDS011;70909;45.768;4.884;2023-06-22T06:32:37;0.10;;;0.10;;
10446;SDS011;70909;45.768;4.884;2023-06-22T06:35:05;0.10;;;0.10;;
10446;SDS011;70909;45.768;4.884;2023-06-22T06:37:35;0.10;;;0.10;;
10446;SDS011;70909;45.768;4.884;2023-06-22T06:40:03;0.10;;;0.10;;
10446;SDS011;70909;45.768;4.884;2023-06-22T06:42:33;0.10;;;0.10;;
10446;SDS011;70909;45.768;4.884;2023-06-22T06:44:59;0.10;;;0.10;;
10446;SDS011;70909;45.768;4.884;2023-06-22T06:47:26;0.10;;;0.10;;
10446;SDS011;70909;45.768;4.884;2023-06-22T06:49:53;0.10;;;0.10;;
10446;SDS011;70909;45.768;4.884;2023-06-22T06:52:20;0.10;;;0.10;;
10446;SDS011;70909;45.768;4.884;2023-06-22T06:54:48;0.10;;;0.10;;
10446;SDS011;70909;45.768;4.884;2023-06-22T06:57:16;0.10;;;0.10;;
10446;SDS011;70909;45.768;4.884;2023-06-22T06:59:43;0.10;;;0.10;;
10446;SDS011;70909;45.768;4.884;2023-06-22T07:02:10;0.10;;;0.10;;
10446;SDS011;70909;45.768;4.884;2023-06-22T07:04:37;0.10;;;0.10;;
10446;SDS011;70909;45.768;4.884;2023-06-22T07:07:04;0.10;;;0.10;;
10446;SDS011;70909;45.768;4.884;2023-06-22T07:09:31;0.10;;;0.10;;
10446;SDS011;70909;45.768;4.884;2023-06-22T07:11:59;0.10;;;0.10;;
10446;SDS011;70909;45.768;4.884;2023-06-22T07:14:26;0.00;;;0.00;;
10446;SDS011;70909;45.768;4.884;2023-06-22T07:16:53;0.00;;;0.00;;
10446;SDS011;70909;45.768;4.884;2023-06-22T07:19:24;0.00;;;0.00;;
10446;SDS011;70909;45.768;4.884;2023-06-22T07:21:51;0.00;;;0.00;;
10446;SDS011;70909;45.768;4.884;2023-06-22T07:24:18;0.00;;;0.00;;
10446;SDS011;70909;45.768;4.884;2023-06-22T07:26:46;0.00;;;0.00;;
10446;SDS011;70909;45.768;4.884;2023-06-22T07:29:14;0.00;;;0.00;;
10446;SDS011;70909;45.768;4.884;2023-06-22T07:31:41;0.00;;;0.00;;
10446;SDS011;70909;45.768;4.884;2023-06-22T07:34:08;0.00;;;0.00;;
10446;SDS011;70909;45.768;4.884;2023-06-22T07:36:35;0.00;;;0.00;;
10446;SDS011;70909;45.768;4.884;2023-06-22T07:39:02;0.00;;;0.00;;
10446;SDS011;70909;45.768;4.884;2023-06-22T07:41:29;0.00;;;0.00;;
10446;SDS011;70909;45.768;4.884;2023-06-22T07:43:56;0.00;;;0.00;;
10446;SDS011;70909;45.768;4.884;2023-06-22T07:46:24;0.00;;;0.00;;
10446;SDS011;70909;45.768;4.884;2023-06-22T07:48:51;0.00;;;0.00;;
10446;SDS011;70909;45.768;4.884;2023-06-22T07:51:17;0.00;;;0.00;;
10446;SDS011;70909;45.768;4.884;2023-06-22T07:53:44;0.00;;;0.00;;
10446;SDS011;70909;45.768;4.884;2023-06-22T07:56:11;0.00;;;0.00;;
10446;SDS011;70909;45.768;4.884;2023-06-22T07:58:38;0.00;;;0.00;;
10446;SDS011;70909;45.768;4.884;2023-06-22T08:01:05;0.00;;;0.00;;
10446;SDS011;70909;45.768;4.884;2023-06-22T08:03:33;0.10;;;0.10;;
10446;SDS011;70909;45.768;4.884;2023-06-22T08:06:00;0.10;;;0.10;;
10446;SDS011;70909;45.768;4.884;2023-06-22T08:08:27;0.00;;;0.00;;
10446;SDS011;70909;45.768;4.884;2023-06-22T08:10:54;0.00;;;0.00;;
10446;SDS011;70909;45.768;4.884;2023-06-22T08:13:20;0.00;;;0.00;;
10446;SDS011;70909;45.768;4.884;2023-06-22T08:15:47;0.00;;;0.00;;
10446;SDS011;70909;45.768;4.884;2023-06-22T08:18:14;0.00;;;0.00;;
10446;SDS011;70909;45.768;4.884;2023-06-22T08:20:42;0.00;;;0.00;;
10446;SDS011;70909;45.768;4.884;2023-06-22T08:23:09;0.00;;;0.00;;
10446;SDS011;70909;45.768;4.884;2023-06-22T08:25:36;0.00;;;0.00;;
10446;SDS011;70909;45.768;4.884;2023-06-22T08:28:03;0.08;;;0.08;;
10446;SDS011;70909;45.768;4.884;2023-06-22T08:30:30;0.00;;;0.00;;
10446;SDS011;70909;45.768;4.884;2023-06-22T08:32:57;0.00;;;0.00;;
10446;SDS011;70909;45.768;4.884;2023-06-22T08:35:24;0.05;;;0.05;;
10446;SDS011;70909;45.768;4.884;2023-06-22T08:37:53;0.00;;;0.00;;
10446;SDS011;70909;45.768;4.884;2023-06-22T08:40:22;0.00;;;0.00;;
10446;SDS011;70909;45.768;4.884;2023-06-22T08:42:49;0.00;;;0.00;;
10446;SDS011;70909;45.768;4.884;2023-06-22T08:45:16;0.00;;;0.00;;
10446;SDS011;70909;45.768;4.884;2023-06-22T08:47:43;0.10;;;0.10;;
10446;SDS011;70909;45.768;4.884;2023-06-22T08:50:10;0.00;;;0.00;;
10446;SDS011;70909;45.768;4.884;2023-06-22T08:52:38;0.00;;;0.00;;
10446;SDS011;70909;45.768;4.884;2023-06-22T08:55:08;0.00;;;0.00;;
10446;SDS011;70909;45.768;4.884;2023-06-22T08:57:35;0.00;;;0.00;;
10446;SDS011;70909;45.768;4.884;2023-06-22T09:00:04;0.00;;;0.00;;
10446;SDS011;70909;45.768;4.884;2023-06-22T09:02:40;0.10;;;0.10;;
10446;SDS011;70909;45.768;4.884;2023-06-22T09:05:08;0.00;;;0.00;;
10446;SDS011;70909;45.768;4.884;2023-06-22T09:07:35;0.00;;;0.00;;
10446;SDS011;70909;45.768;4.884;2023-06-22T09:10:02;0.00;;;0.00;;
10446;SDS011;70909;45.768;4.884;2023-06-22T09:12:32;0.00;;;0.00;;
10446;SDS011;70909;45.768;4.884;2023-06-22T09:14:59;0.00;;;0.00;;
10446;SDS011;70909;45.768;4.884;2023-06-22T09:17:27;0.10;;;0.10;;
10446;SDS011;70909;45.768;4.884;2023-06-22T09:19:54;0.00;;;0.00;;
10446;SDS011;70909;45.768;4.884;2023-06-22T09:22:21;0.00;;;0.00;;
10446;SDS011;70909;45.768;4.884;2023-06-22T09:24:54;0.00;;;0.00;;
10446;SDS011;70909;45.768;4.884;2023-06-22T09:27:20;0.10;;;0.10;;
10446;SDS011;70909;45.768;4.884;2023-06-22T09:29:49;0.00;;;0.00;;
10446;SDS011;70909;45.768;4.884;2023-06-22T09:32:16;0.10;;;0.10;;
10446;SDS011;70909;45.768;4.884;2023-06-22T09:34:43;0.00;;;0.00;;
10446;SDS011;70909;45.768;4.884;2023-06-22T09:37:10;0.00;;;0.00;;
10446;SDS011;70909;45.768;4.884;2023-06-22T09:39:36;0.00;;;0.00;;
10446;SDS011;70909;45.768;4.884;2023-06-22T09:42:03;0.00;;;0.00;;
10446;SDS011;70909;45.768;4.884;2023-06-22T09:44:31;0.00;;;0.00;;
10446;SDS011;70909;45.768;4.884;2023-06-22T09:46:59;0.00;;;0.00;;
10446;SDS011;70909;45.768;4.884;2023-06-22T09:49:26;0.10;;;0.10;;
10446;SDS011;70909;45.768;4.884;2023-06-22T09:51:53;0.00;;;0.00;;
10446;SDS011;70909;45.768;4.884;2023-06-22T09:54:20;0.00;;;0.00;;
10446;SDS011;70909;45.768;4.884;2023-06-22T09:56:47;0.00;;;0.00;;
10446;SDS011;70909;45.768;4.884;2023-06-22T09:59:13;0.00;;;0.00;;
10446;SDS011;70909;45.768;4.884;2023-06-22T10:01:40;0.00;;;0.00;;
10446;SDS011;70909;45.768;4.884;2023-06-22T10:04:08;0.00;;;0.00;;
10446;SDS011;70909;45.768;4.884;2023-06-22T10:06:35;0.00;;;0.00;;
10446;SDS011;70909;45.768;4.884;2023-06-22T10:09:05;0.00;;;0.00;;
10446;SDS011;70909;45.768;4.884;2023-06-22T10:11:32;0.00;;;0.00;;
10446;SDS011;70909;45.768;4.884;2023-06-22T10:14:00;0.10;;;0.10;;
10446;SDS011;70909;45.768;4.884;2023-06-22T10:16:30;0.00;;;0.00;;
10446;SDS011;70909;45.768;4.884;2023-06-22T10:18:57;0.00;;;0.00;;
10446;SDS011;70909;45.768;4.884;2023-06-22T10:21:25;0.00;;;0.00;;
10446;SDS011;70909;45.768;4.884;2023-06-22T10:23:53;0.00;;;0.00;;
10446;SDS011;70909;45.768;4.884;2023-06-22T10:26:20;0.00;;;0.00;;
10446;SDS011;70909;45.768;4.884;2023-06-22T10:28:47;0.00;;;0.00;;
10446;SDS011;70909;45.768;4.884;2023-06-22T10:31:13;0.00;;;0.00;;
10446;SDS011;70909;45.768;4.884;2023-06-22T10:33:41;0.00;;;0.00;;
10446;SDS011;70909;45.768;4.884;2023-06-22T10:36:09;0.00;;;0.00;;
10446;SDS011;70909;45.768;4.884;2023-06-22T10:38:37;0.00;;;0.00;;
10446;SDS011;70909;45.768;4.884;2023-06-22T10:41:04;0.10;;;0.10;;
10446;SDS011;70909;45.768;4.884;2023-06-22T10:43:31;0.00;;;0.00;;
10446;SDS011;70909;45.768;4.884;2023-06-22T10:45:58;0.10;;;0.10;;
10446;SDS011;70909;45.768;4.884;2023-06-22T10:48:25;0.10;;;0.10;;
10446;SDS011;70909;45.768;4.884;2023-06-22T10:50:51;0.10;;;0.10;;
10446;SDS011;70909;45.768;4.884;2023-06-22T10:53:19;0.00;;;0.00;;
10446;SDS011;70909;45.768;4.884;2023-06-22T10:55:48;0.10;;;0.10;;
10446;SDS011;70909;45.768;4.884;2023-06-22T10:58:14;0.03;;;0.03;;
10446;SDS011;70909;45.768;4.884;2023-06-22T11:00:41;0.08;;;0.08;;
10446;SDS011;70909;45.768;4.884;2023-06-22T11:03:08;0.10;;;0.10;;
10446;SDS011;70909;45.768;4.884;2023-06-22T11:05:35;0.10;;;0.10;;
10446;SDS011;70909;45.768;4.884;2023-06-22T11:08:01;0.10;;;0.10;;
10446;SDS011;70909;45.768;4.884;2023-06-22T11:10:28;0.08;;;0.08;;
10446;SDS011;70909;45.768;4.884;2023-06-22T11:12:56;0.10;;;0.10;;
10446;SDS011;70909;45.768;4.884;2023-06-22T11:15:23;0.10;;;0.10;;
10446;SDS011;70909;45.768;4.884;2023-06-22T11:17:50;0.10;;;0.10;;
10446;SDS011;70909;45.768;4.884;2023-06-22T11:20:17;0.10;;;0.10;;
10446;SDS011;70909;45.768;4.884;2023-06-22T11:22:44;0.00;;;0.00;;
10446;SDS011;70909;45.768;4.884;2023-06-22T11:25:11;0.10;;;0.10;;
10446;SDS011;70909;45.768;4.884;2023-06-22T11:27:38;0.10;;;0.10;;
10446;SDS011;70909;45.768;4.884;2023-06-22T11:30:07;0.10;;;0.10;;
10446;SDS011;70909;45.768;4.884;2023-06-22T11:32:34;0.10;;;0.10;;
10446;SDS011;70909;45.768;4.884;2023-06-22T11:35:01;0.10;;;0.10;;
10446;SDS011;70909;45.768;4.884;2023-06-22T11:37:28;0.10;;;0.10;;
10446;SDS011;70909;45.768;4.884;2023-06-22T11:39:55;0.10;;;0.10;;
10446;SDS011;70909;45.768;4.884;2023-06-22T11:42:23;0.10;;;0.10;;
10446;SDS011;70909;45.768;4.884;2023-06-22T11:44:50;0.10;;;0.10;;
10446;SDS011;70909;45.768;4.884;2023-06-22T11:47:18;0.10;;;0.10;;
10446;SDS011;70909;45.768;4.884;2023-06-22T11:49:45;0.10;;;0.10;;
10446;SDS011;70909;45.768;4.884;2023-06-22T11:52:12;0.10;;;0.10;;
10446;SDS011;70909;45.768;4.884;2023-06-22T11:54:39;0.10;;;0.10;;
10446;SDS011;70909;45.768;4.884;2023-06-22T11:57:05;0.10;;;0.10;;
10446;SDS011;70909;45.768;4.884;2023-06-22T11:59:33;0.10;;;0.10;;
10446;SDS011;70909;45.768;4.884;2023-06-22T12:02:00;0.10;;;0.10;;
10446;SDS011;70909;45.768;4.884;2023-06-22T12:04:28;0.10;;;0.10;;
10446;SDS011;70909;45.768;4.884;2023-06-22T12:06:54;0.10;;;0.10;;
10446;SDS011;70909;45.768;4.884;2023-06-22T12:09:21;0.10;;;0.10;;
10446;SDS011;70909;45.768;4.884;2023-06-22T12:11:48;0.10;;;0.10;;
10446;SDS011;70909;45.768;4.884;2023-06-22T12:14:15;0.10;;;0.10;;
10446;SDS011;70909;45.768;4.884;2023-06-22T12:16:41;0.10;;;0.10;;
10446;SDS011;70909;45.768;4.884;2023-06-22T12:19:10;0.17;;;0.17;;
10446;SDS011;70909;45.768;4.884;2023-06-22T12:21:39;0.10;;;0.10;;
10446;SDS011;70909;45.768;4.884;2023-06-22T12:24:06;0.10;;;0.10;;
10446;SDS011;70909;45.768;4.884;2023-06-22T12:26:33;0.20;;;0.20;;
10446;SDS011;70909;45.768;4.884;2023-06-22T12:29:00;0.20;;;0.20;;
10446;SDS011;70909;45.768;4.884;2023-06-22T12:31:26;0.20;;;0.20;;
10446;SDS011;70909;45.768;4.884;2023-06-22T12:33:53;0.10;;;0.10;;
10446;SDS011;70909;45.768;4.884;2023-06-22T12:36:20;0.10;;;0.10;;
10446;SDS011;70909;45.768;4.884;2023-06-22T12:38:48;0.20;;;0.20;;
10446;SDS011;70909;45.768;4.884;2023-06-22T12:41:15;0.10;;;0.10;;
10446;SDS011;70909;45.768;4.884;2023-06-22T12:43:42;0.20;;;0.20;;
10446;SDS011;70909;45.768;4.884;2023-06-22T12:46:08;0.10;;;0.10;;
10446;SDS011;70909;45.768;4.884;2023-06-22T12:48:35;0.20;;;0.20;;
10446;SDS011;70909;45.768;4.884;2023-06-22T12:51:06;0.20;;;0.20;;
10446;SDS011;70909;45.768;4.884;2023-06-22T12:53:33;0.10;;;0.10;;
10446;SDS011;70909;45.768;4.884;2023-06-22T12:56:01;0.10;;;0.10;;
10446;SDS011;70909;45.768;4.884;2023-06-22T12:58:28;0.10;;;0.10;;
10446;SDS011;70909;45.768;4.884;2023-06-22T13:00:55;0.20;;;0.20;;
10446;SDS011;70909;45.768;4.884;2023-06-22T13:03:22;0.20;;;0.20;;
10446;SDS011;70909;45.768;4.884;2023-06-22T13:05:51;0.20;;;0.20;;
10446;SDS011;70909;45.768;4.884;2023-06-22T13:08:18;0.30;;;0.30;;
10446;SDS011;70909;45.768;4.884;2023-06-22T13:10:45;0.20;;;0.20;;
10446;SDS011;70909;45.768;4.884;2023-06-22T13:13:13;0.30;;;0.30;;
10446;SDS011;70909;45.768;4.884;2023-06-22T13:15:40;0.30;;;0.30;;
10446;SDS011;70909;45.768;4.884;2023-06-22T13:18:07;0.20;;;0.20;;
10446;SDS011;70909;45.768;4.884;2023-06-22T13:20:33;0.20;;;0.20;;
10446;SDS011;70909;45.768;4.884;2023-06-22T13:23:00;0.20;;;0.20;;
10446;SDS011;70909;45.768;4.884;2023-06-22T13:25:27;0.30;;;0.30;;
10446;SDS011;70909;45.768;4.884;2023-06-22T13:27:54;0.20;;;0.20;;
10446;SDS011;70909;45.768;4.884;2023-06-22T13:30:22;0.20;;;0.20;;
10446;SDS011;70909;45.768;4.884;2023-06-22T13:32:49;0.20;;;0.20;;
10446;SDS011;70909;45.768;4.884;2023-06-22T13:35:16;0.20;;;0.20;;
10446;SDS011;70909;45.768;4.884;2023-06-22T13:37:42;0.20;;;0.20;;
10446;SDS011;70909;45.768;4.884;2023-06-22T13:40:09;0.20;;;0.20;;
10446;SDS011;70909;45.768;4.884;2023-06-22T13:42:36;0.20;;;0.20;;
10446;SDS011;70909;45.768;4.884;2023-06-22T13:45:04;0.20;;;0.20;;
10446;SDS011;70909;45.768;4.884;2023-06-22T13:47:35;0.20;;;0.20;;
10446;SDS011;70909;45.768;4.884;2023-06-22T13:50:01;0.30;;;0.30;;
10446;SDS011;70909;45.768;4.884;2023-06-22T13:52:28;0.20;;;0.20;;
10446;SDS011;70909;45.768;4.884;2023-06-22T13:54:55;0.20;;;0.20;;
10446;SDS011;70909;45.768;4.884;2023-06-22T13:57:22;0.30;;;0.30;;
10446;SDS011;70909;45.768;4.884;2023-06-22T13:59:49;0.20;;;0.20;;
10446;SDS011;70909;45.768;4.884;2023-06-22T14:02:16;0.30;;;0.30;;
10446;SDS011;70909;45.768;4.884;2023-06-22T14:04:44;0.20;;;0.20;;
10446;SDS011;70909;45.768;4.884;2023-06-22T14:07:10;0.30;;;0.30;;
10446;SDS011;70909;45.768;4.884;2023-06-22T14:09:37;0.30;;;0.30;;
10446;SDS011;70909;45.768;4.884;2023-06-22T14:12:04;0.20;;;0.20;;
10446;SDS011;70909;45.768;4.884;2023-06-22T14:14:32;0.30;;;0.30;;
10446;SDS011;70909;45.768;4.884;2023-06-22T14:16:59;0.30;;;0.30;;
10446;SDS011;70909;45.768;4.884;2023-06-22T14:19:26;0.30;;;0.30;;
10446;SDS011;70909;45.768;4.884;2023-06-22T14:21:54;0.30;;;0.30;;
10446;SDS011;70909;45.768;4.884;2023-06-22T14:24:21;0.30;;;0.30;;
10446;SDS011;70909;45.768;4.884;2023-06-22T14:26:48;0.30;;;0.30;;
10446;SDS011;70909;45.768;4.884;2023-06-22T14:29:15;0.30;;;0.30;;
10446;SDS011;70909;45.768;4.884;2023-06-22T14:31:44;0.30;;;0.30;;
10446;SDS011;70909;45.768;4.884;2023-06-22T14:34:11;0.30;;;0.30;;
10446;SDS011;70909;45.768;4.884;2023-06-22T14:36:38;0.40;;;0.40;;
10446;SDS011;70909;45.768;4.884;2023-06-22T14:39:06;0.40;;;0.40;;
10446;SDS011;70909;45.768;4.884;2023-06-22T14:41:33;0.40;;;0.40;;
10446;SDS011;70909;45.768;4.884;2023-06-22T14:44:00;0.40;;;0.40;;
10446;SDS011;70909;45.768;4.884;2023-06-22T14:46:27;0.30;;;0.30;;
10446;SDS011;70909;45.768;4.884;2023-06-22T14:48:53;0.40;;;0.40;;
10446;SDS011;70909;45.768;4.884;2023-06-22T14:51:20;0.30;;;0.30;;